Time;durP1;ratioP1;P1;durP2;ratioP2;P2;SDS_P1;SDS_P2;PMS_P1;PMS_P2;Temp;Humidity;BMP_temperature;BMP_pressure;BME280_temperature;BME280_humidity;BME280_pressure;Samples;Min_cycle;Max_cycle;Signal;HPM_P1;HPM_P2
2021/06/09 00:01:17;;;;;;;;;;;;;;;10.15;100.00;99599.34;5053025;28;19984;-83
2021/06/09 00:03:44;;;;;;;;;;;;;;;10.15;100.00;99599.34;5052067;28;20288;-83
2021/06/09 00:06:11;;;;;;;;;;;;;;;10.08;100.00;99597.41;5055774;28;19933;-83
2021/06/09 00:08:39;;;;;;;;;;;;;;;10.10;100.00;99591.41;5056628;28;20365;-83
2021/06/09 00:11:06;;;;;;;;;;;;;;;10.26;100.00;99605.66;5039007;28;20051;-83
2021/06/09 00:13:33;;;;;;;;;;;;;;;10.21;100.00;99600.50;5071868;28;19929;-83
2021/06/09 00:16:03;;;;;;;;;;;;;;;10.02;100.00;99595.41;5056842;28;19931;-83
2021/06/09 00:18:30;;;;;;;;;;;;;;;10.02;100.00;99600.97;5055288;28;19929;-83
2021/06/09 00:20:57;;;;;;;;;;;;;;;10.01;100.00;99607.78;5055140;28;20406;-83
2021/06/09 00:23:30;;;;;;;;;;;;;;;10.00;100.00;99601.38;5055101;28;20287;-83
2021/06/09 00:26:01;;;;;;;;;;;;;;;10.05;100.00;99598.19;5072084;28;19925;-83
2021/06/09 00:28:28;;;;;;;;;;;;;;;10.08;100.00;99596.59;5056236;28;20029;-83
2021/06/09 00:30:55;;;;;;;;;;;;;;;10.12;100.00;99597.34;5055026;28;20462;-83
2021/06/09 00:33:26;;;;;;;;;;;;;;;10.02;100.00;99595.41;5060553;28;19936;-83
2021/06/09 00:35:57;;;;;;;;;;;;;;;9.82;100.00;99591.50;5054715;28;20346;-83
2021/06/09 00:38:26;;;;;;;;;;;;;;;9.87;100.00;99591.09;5071883;28;19932;-83
2021/06/09 00:40:53;;;;;;;;;;;;;;;9.96;100.00;99580.28;5055077;28;19925;-83
2021/06/09 00:43:22;;;;;;;;;;;;;;;10.00;100.00;99589.41;5041502;28;19988;-83
2021/06/09 00:45:53;;;;;;;;;;;;;;;10.04;100.00;99602.16;5053053;28;19929;-83
2021/06/09 00:48:25;;;;;;;;;;;;;;;9.87;100.00;99596.69;5055059;28;19925;-83
2021/06/09 00:51:00;;;;;;;;;;;;;;;9.66;100.00;99585.59;5054700;28;20015;-83
2021/06/09 00:53:28;;;;;;;;;;;;;;;9.81;100.00;99596.31;5054787;28;19975;-84
2021/06/09 00:55:59;;;;;;;;;;;;;;;9.97;100.00;99593.03;5071882;28;19932;-83
2021/06/09 00:58:27;;;;;;;;;;;;;;;9.91;100.00;99583.47;5054643;28;20440;-83
2021/06/09 01:00:54;;;;;;;;;;;;;;;9.77;100.00;99586.38;5054272;28;20322;-83
2021/06/09 01:03:21;;;;;;;;;;;;;;;9.57;100.00;99590.81;5070811;28;19979;-83
2021/06/09 01:05:48;;;;;;;;;;;;;;;9.47;100.00;99584.06;5054463;28;19924;-83
2021/06/09 01:08:16;;;;;;;;;;;;;;;9.39;100.00;99590.88;5054217;28;19948;-83
2021/06/09 01:10:44;;;;;;;;;;;;;;;9.48;100.00;99593.25;5054225;28;19925;-83
2021/06/09 01:13:13;;;;;;;;;;;;;;;9.47;100.00;99594.44;5054109;28;19925;-83
2021/06/09 01:15:40;;;;;;;;;;;;;;;9.49;100.00;99597.63;5054547;28;19924;-83
2021/06/09 01:18:08;;;;;;;;;;;;;;;9.17;100.00;99600.50;5053649;28;19931;-83
2021/06/09 01:20:35;;;;;;;;;;;;;;;9.08;100.00;99600.91;5055765;28;19932;-83
2021/06/09 01:23:04;;;;;;;;;;;;;;;9.22;100.00;99593.72;5071334;28;19991;-83
2021/06/09 01:25:31;;;;;;;;;;;;;;;9.29;100.00;99593.69;5070168;28;20421;-83
2021/06/09 01:27:58;;;;;;;;;;;;;;;9.38;100.00;99597.66;5054043;28;20338;-83
2021/06/09 01:30:25;;;;;;;;;;;;;;;9.50;100.00;99607.56;5055154;28;20494;-83
2021/06/09 01:32:53;;;;;;;;;;;;;;;9.40;100.00;99611.19;5091457;28;19934;-83
2021/06/09 01:35:20;;;;;;;;;;;;;;;9.07;100.00;99604.88;5070875;28;20019;-83
2021/06/09 01:37:49;;;;;;;;;;;;;;;9.02;100.00;99607.28;5053832;28;19925;-83
2021/06/09 01:40:18;;;;;;;;;;;;;;;9.13;100.00;99613.66;5055030;28;20264;-83
2021/06/09 01:42:46;;;;;;;;;;;;;;;9.30;100.00;99610.00;5053535;28;19968;-82
2021/06/09 01:45:14;;;;;;;;;;;;;;;9.26;100.00;99611.22;5037226;28;19925;-82
2021/06/09 01:47:42;;;;;;;;;;;;;;;9.19;100.00;99604.47;5053335;28;20005;-83
2021/06/09 01:50:11;;;;;;;;;;;;;;;9.23;100.00;99614.81;5070696;28;19968;-83
2021/06/09 01:52:38;;;;;;;;;;;;;;;9.19;100.00;99606.47;5053344;28;20003;-83
2021/06/09 01:55:07;;;;;;;;;;;;;;;9.04;100.00;99600.09;5053318;28;20006;-83
2021/06/09 01:57:35;;;;;;;;;;;;;;;8.99;100.00;99608.09;5053441;28;20372;-83
2021/06/09 02:00:05;;;;;;;;;;;;;;;8.80;100.00;99603.72;5054777;28;20029;-83
2021/06/09 02:02:40;;;;;;;;;;;;;;;8.82;100.00;99606.91;5053179;28;19929;-83
2021/06/09 02:05:08;;;;;;;;;;;;;;;8.93;100.00;99604.91;5053440;28;20019;-83
2021/06/09 02:07:40;;;;;;;;;;;;;;;9.03;100.00;99604.09;5053106;28;19925;-82
2021/06/09 02:10:09;;;;;;;;;;;;;;;9.13;100.00;99596.94;5054498;28;19925;-83
2021/06/09 02:12:39;;;;;;;;;;;;;;;9.18;100.00;99594.50;5036568;28;20062;-83
2021/06/09 02:15:06;;;;;;;;;;;;;;;9.26;100.00;99600.06;5054174;28;20426;-83
2021/06/09 02:17:34;;;;;;;;;;;;;;;9.06;100.00;99597.72;5054290;28;19936;-83
2021/06/09 02:20:02;;;;;;;;;;;;;;;8.87;100.00;99595.38;5052796;28;20299;-83
2021/06/09 02:22:34;;;;;;;;;;;;;;;8.89;100.00;99594.97;5053652;28;19929;-83
2021/06/09 02:25:02;;;;;;;;;;;;;;;8.93;100.00;99592.97;5019890;28;19932;-83
2021/06/09 02:27:29;;;;;;;;;;;;;;;8.88;100.00;99590.56;5036372;28;19929;-83
2021/06/09 02:29:56;;;;;;;;;;;;;;;8.89;100.00;99597.75;5053429;28;19925;-83
2021/06/09 02:32:23;;;;;;;;;;;;;;;8.83;100.00;99600.13;5056891;28;19933;-83
2021/06/09 02:34:51;;;;;;;;;;;;;;;8.98;100.00;99590.56;5049506;28;20023;-84
2021/06/09 02:37:19;;;;;;;;;;;;;;;9.03;100.00;99595.75;5066111;28;19925;-83
2021/06/09 02:39:46;;;;;;;;;;;;;;;9.11;100.00;99583.38;5053826;28;19962;-83
2021/06/09 02:42:17;;;;;;;;;;;;;;;9.16;100.00;99596.91;5052350;28;20330;-84
2021/06/09 02:44:45;;;;;;;;;;;;;;;9.16;100.00;99591.31;5052600;28;20013;-83
2021/06/09 02:47:13;;;;;;;;;;;;;;;8.96;100.00;99581.81;5052462;28;19925;-83
2021/06/09 02:49:41;;;;;;;;;;;;;;;8.77;100.00;99573.06;5039874;28;19929;-83
2021/06/09 02:52:15;;;;;;;;;;;;;;;8.58;100.00;99579.84;5039381;28;20320;-83
2021/06/09 02:54:46;;;;;;;;;;;;;;;8.54;100.00;99581.81;5065884;28;19949;-83
2021/06/09 02:57:32;;;;;;;;;;;;;;;8.69;100.00;99582.63;5043604;28;20407;-83
2021/06/09 03:00:08;;;;;;;;;;;;;;;8.80;100.00;99572.25;5059398;28;19924;-83
2021/06/09 03:02:44;;;;;;;;;;;;;;;8.97;100.00;99571.44;5057888;28;20032;-82
2021/06/09 03:05:34;;;;;;;;;;;;;;;9.02;100.00;99585.00;5060444;28;19963;-83
2021/06/09 03:08:07;;;;;;;;;;;;;;;8.98;100.00;99578.63;5072669;28;19924;-83
2021/06/09 03:10:52;;;;;;;;;;;;;;;8.95;100.00;99580.22;5079414;28;19929;-83
2021/06/09 03:14:02;;;;;;;;;;;;;;;8.85;100.00;99569.88;5066142;28;19924;-83
2021/06/09 03:16:51;;;;;;;;;;;;;;;8.97;100.00;99577.03;5055115;28;19925;-83
2021/06/09 03:19:20;;;;;;;;;;;;;;;9.01;100.00;99575.81;5072583;28;19925;-83
2021/06/09 03:21:50;;;;;;;;;;;;;;;9.27;100.00;99584.94;5086843;28;19925;-83
2021/06/09 03:24:29;;;;;;;;;;;;;;;9.27;100.00;99598.88;5078949;28;19924;-83
2021/06/09 03:27:19;;;;;;;;;;;;;;;9.27;100.00;99584.94;5071678;28;19924;-83
2021/06/09 03:30:02;;;;;;;;;;;;;;;9.34;100.00;99587.72;5058520;28;19925;-83
2021/06/09 03:32:33;;;;;;;;;;;;;;;8.98;100.00;99585.00;5051228;28;20287;-83
2021/06/09 03:35:02;;;;;;;;;;;;;;;8.97;100.00;99577.84;5073628;28;19924;-83
2021/06/09 03:37:31;;;;;;;;;;;;;;;9.05;100.00;99576.63;5081714;28;20364;-83
2021/06/09 03:39:58;;;;;;;;;;;;;;;9.10;100.00;99581.78;5066873;28;19931;-83
2021/06/09 03:42:29;;;;;;;;;;;;;;;9.15;100.00;99575.00;5076829;28;20440;-84
2021/06/09 03:44:57;;;;;;;;;;;;;;;9.29;100.00;99582.53;5076237;28;19925;-83
2021/06/09 03:47:25;;;;;;;;;;;;;;;9.36;100.00;99577.72;5071306;28;20338;-83
2021/06/09 03:49:53;;;;;;;;;;;;;;;9.48;100.00;99573.72;5066926;28;19928;-84
2021/06/09 03:52:21;;;;;;;;;;;;;;;9.29;100.00;99574.97;5078117;28;20436;-83
2021/06/09 03:54:50;;;;;;;;;;;;;;;8.90;100.00;99569.50;5099533;28;20299;-84
2021/06/09 03:57:18;;;;;;;;;;;;;;;8.82;100.00;99576.25;5071580;28;19925;-83
2021/06/09 03:59:46;;;;;;;;;;;;;;;8.99;100.00;99574.63;5058926;28;19932;-83
2021/06/09 04:02:13;;;;;;;;;;;;;;;9.09;100.00;99580.19;5059058;28;19932;-83
2021/06/09 04:04:42;;;;;;;;;;;;;;;8.98;100.00;99585.00;5075508;28;20033;-84
2021/06/09 04:07:11;;;;;;;;;;;;;;;8.80;100.00;99575.84;5063324;28;20284;-84
2021/06/09 04:09:40;;;;;;;;;;;;;;;8.67;100.00;99585.00;5093711;28;19974;-84
2021/06/09 04:12:09;;;;;;;;;;;;;;;8.64;100.00;99581.03;5080923;28;19924;-84
2021/06/09 04:14:38;;;;;;;;;;;;;;;8.80;100.00;99584.22;5069650;28;19925;-83
2021/06/09 04:17:06;;;;;;;;;;;;;;;8.89;100.00;99581.81;5056517;28;19964;-84
2021/06/09 04:19:34;;;;;;;;;;;;;;;8.91;100.00;99589.78;5044099;28;19929;-84
2021/06/09 04:22:03;;;;;;;;;;;;;;;8.64;100.00;99592.19;5049860;28;19929;-84
2021/06/09 04:24:36;;;;;;;;;;;;;;;8.48;100.00;99588.22;5070773;28;19978;-83
2021/06/09 04:27:08;;;;;;;;;;;;;;;8.63;100.00;99587.03;5050630;28;19925;-84
2021/06/09 04:29:36;;;;;;;;;;;;;;;8.79;100.00;99591.00;5053359;28;20007;-84
2021/06/09 04:32:06;;;;;;;;;;;;;;;8.93;100.00;99582.63;5076326;28;20025;-84
2021/06/09 04:34:50;;;;;;;;;;;;;;;9.06;100.00;99589.38;5094709;28;19948;-84
2021/06/09 04:37:18;;;;;;;;;;;;;;;9.25;100.00;99593.72;5068795;28;19932;-83
2021/06/09 04:39:46;;;;;;;;;;;;;;;9.23;100.00;99595.28;5075130;28;19924;-84
2021/06/09 04:42:14;;;;;;;;;;;;;;;9.32;100.00;99592.88;5091014;28;20414;-84
2021/06/09 04:44:42;;;;;;;;;;;;;;;9.12;100.00;99598.91;5061377;28;20334;-84
2021/06/09 04:47:10;;;;;;;;;;;;;;;8.99;100.00;99596.94;5054967;28;20395;-84
2021/06/09 04:49:42;;;;;;;;;;;;;;;9.20;100.00;99602.47;5055880;28;20332;-84
2021/06/09 04:52:10;;;;;;;;;;;;;;;9.14;100.00;99599.31;5073811;28;19925;-84
2021/06/09 04:54:38;;;;;;;;;;;;;;;9.28;100.00;99606.84;5108464;28;19924;-84
2021/06/09 04:57:06;;;;;;;;;;;;;;;9.53;100.00;99603.97;5090479;28;20780;-83
2021/06/09 04:59:33;;;;;;;;;;;;;;;9.63;100.00;99609.53;5055721;28;20402;-84
2021/06/09 05:02:01;;;;;;;;;;;;;;;9.68;100.00;99605.53;5066472;28;19935;-84
2021/06/09 05:04:28;;;;;;;;;;;;;;;9.76;100.00;99612.66;5055960;28;19947;-84
2021/06/09 05:06:55;;;;;;;;;;;;;;;9.79;100.00;99607.06;5065157;28;19947;-84
2021/06/09 05:09:23;;;;;;;;;;;;;;;10.03;100.00;99616.53;5071476;28;20007;-84
2021/06/09 05:11:53;;;;;;;;;;;;;;;10.08;100.00;99613.34;5054606;28;19924;-84
2021/06/09 05:14:39;;;;;;;;;;;;;;;10.22;100.00;99618.84;5070935;28;20475;-84
2021/06/09 05:17:07;;;;;;;;;;;;;;;10.22;100.00;99624.44;5064483;28;20265;-84
2021/06/09 05:19:35;;;;;;;;;;;;;;;10.05;100.00;99622.50;5055497;28;19928;-84
2021/06/09 05:22:04;;;;;;;;;;;;;;;10.05;100.00;99620.50;5062718;28;20399;-83
2021/06/09 05:24:33;;;;;;;;;;;;;;;10.13;100.00;99626.88;5074032;28;19955;-84
2021/06/09 05:27:01;;;;;;;;;;;;;;;10.24;100.00;99628.41;5061724;28;19925;-84
2021/06/09 05:29:29;;;;;;;;;;;;;;;10.39;100.00;99629.13;5055900;28;20372;-84
2021/06/09 05:31:58;;;;;;;;;;;;;;;10.55;100.00;99641.41;5065531;28;19924;-84
2021/06/09 05:34:25;;;;;;;;;;;;;;;10.68;100.00;99653.66;5107561;28;20457;-84
2021/06/09 05:36:53;;;;;;;;;;;;;;;10.86;100.00;99647.94;5060645;28;19932;-84
2021/06/09 05:39:20;;;;;;;;;;;;;;;11.25;100.00;99656.81;5057110;28;19959;-84
2021/06/09 05:41:47;;;;;;;;;;;;;;;11.84;100.00;99663.81;5055987;28;19966;-84
2021/06/09 05:44:15;;;;;;;;;;;;;;;12.51;100.00;99674.94;5063298;28;20022;-84
2021/06/09 05:46:46;;;;;;;;;;;;;;;13.26;100.00;99674.59;5073426;28;20442;-84
2021/06/09 05:49:23;;;;;;;;;;;;;;;14.57;100.00;99682.84;5081903;28;20027;-88
2021/06/09 05:51:51;;;;;;;;;;;;;;;15.44;100.00;99676.34;5031548;28;20121;-84
2021/06/09 05:54:19;;;;;;;;;;;;;;;16.43;100.00;99663.91;5067675;28;19978;-85
2021/06/09 05:56:47;;;;;;;;;;;;;;;17.47;100.00;99647.66;5065370;28;19924;-83
2021/06/09 05:59:15;;;;;;;;;;;;;;;17.30;100.00;99608.66;5103683;28;19931;-83
2021/06/09 06:01:43;;;;;;;;;;;;;;;16.97;100.00;99579.16;5064615;28;19925;-84
2021/06/09 06:04:11;;;;;;;;;;;;;;;16.05;100.00;99556.69;5052173;28;19929;-87
2021/06/09 06:06:39;;;;;;;;;;;;;;;16.63;100.00;99548.84;5105703;28;20465;-82
2021/06/09 06:09:06;;;;;;;;;;;;;;;17.28;100.00;99540.59;5106512;28;20066;-84
2021/06/09 06:11:34;;;;;;;;;;;;;;;17.67;100.00;99518.16;5074530;28;19928;-83
2021/06/09 06:14:06;;;;;;;;;;;;;;;18.50;100.00;99498.34;5057063;28;19925;-83
2021/06/09 06:16:33;;;;;;;;;;;;;;;18.33;100.00;99477.19;5074298;28;19928;-83
2021/06/09 06:19:00;;;;;;;;;;;;;;;18.05;100.00;99467.03;5078421;28;19979;-83
2021/06/09 06:21:28;;;;;;;;;;;;;;;17.66;100.00;99456.47;5034272;28;19995;-83
2021/06/09 06:23:56;;;;;;;;;;;;;;;17.30;100.00;99450.50;5063335;28;19925;-82
2021/06/09 06:26:24;;;;;;;;;;;;;;;16.94;100.00;99438.94;5074089;28;19971;-82
2021/06/09 06:28:54;;;;;;;;;;;;;;;16.34;100.00;99435.34;5072952;28;19955;-82
2021/06/09 06:31:26;;;;;;;;;;;;;;;15.85;100.00;99437.75;5072783;28;20359;-81
2021/06/09 06:33:54;;;;;;;;;;;;;;;16.20;100.00;99447.91;5065725;28;19925;-80
2021/06/09 06:36:25;;;;;;;;;;;;;;;16.60;100.00;99447.41;5068141;28;19928;-81
2021/06/09 06:38:53;;;;;;;;;;;;;;;16.51;100.00;99438.84;5073698;28;19978;-80
2021/06/09 06:41:21;;;;;;;;;;;;;;;16.21;100.00;99432.56;5073311;28;20395;-81
2021/06/09 06:43:49;;;;;;;;;;;;;;;15.79;100.00;99428.28;5045824;28;19960;-80
2021/06/09 06:46:18;;;;;;;;;;;;;;;15.64;100.00;99435.59;5073638;28;19967;-80
2021/06/09 06:48:48;;;;;;;;;;;;;;;16.58;100.00;99432.97;5106031;28;19925;-80
2021/06/09 06:51:16;;;;;;;;;;;;;;;18.23;100.00;99427.50;5073470;28;19966;-81
2021/06/09 06:53:45;;;;;;;;;;;;;;;20.71;100.00;99419.25;5072256;28;19931;-81
2021/06/09 06:56:13;;;;;;;;;;;;;;;22.25;100.00;99393.72;5073308;28;19931;-81
2021/06/09 06:58:48;;;;;;;;;;;;;;;23.54;100.00;99383.47;5073235;28;20074;-81
2021/06/09 07:01:18;;;;;;;;;;;;;;;24.08;100.00;99373.84;5073267;28;19966;-81
2021/06/09 07:03:46;;;;;;;;;;;;;;;24.25;100.00;99369.78;5073406;28;19978;-81
2021/06/09 07:06:14;;;;;;;;;;;;;;;25.02;100.00;99355.16;5057697;28;19924;-81
2021/06/09 07:08:41;;;;;;;;;;;;;;;24.93;100.00;99348.88;5073467;28;19959;-81
2021/06/09 07:11:12;;;;;;;;;;;;;;;24.25;100.00;99351.91;5073288;28;19925;-81
2021/06/09 07:13:39;;;;;;;;;;;;;;;23.79;100.00;99354.13;5073283;28;19925;-80
2021/06/09 07:16:09;;;;;;;;;;;;;;;24.71;100.00;99341.00;5076518;28;19924;-81
2021/06/09 07:18:47;;;;;;;;;;;;;;;24.70;100.00;99337.34;5076657;28;19924;-82
2021/06/09 07:21:15;;;;;;;;;;;;;;;25.06;100.00;99341.38;5056782;28;19932;-81
2021/06/09 07:23:44;;;;;;;;;;;;;;;25.10;100.00;99336.19;5071897;28;19929;-80
2021/06/09 07:26:12;;;;;;;;;;;;;;;25.20;100.00;99337.53;5077012;28;19928;-80
2021/06/09 07:28:54;;;;;;;;;;;;;;;24.95;100.00;99335.63;5051738;28;20007;-81
2021/06/09 07:31:30;;;;;;;;;;;;;;;25.59;100.00;99326.94;5105801;28;19925;-80
2021/06/09 07:33:57;;;;;;;;;;;;;;;25.43;100.00;99341.22;5083589;28;19924;-80
2021/06/09 07:36:39;;;;;;;;;;;;;;;25.25;100.00;99341.69;5063495;28;19931;-80
2021/06/09 07:39:08;;;;;;;;;;;;;;;25.64;100.00;99345.41;5067971;28;19924;-82
2021/06/09 07:41:39;;;;;;;;;;;;;;;25.79;100.00;99343.84;5061307;28;19943;-81
2021/06/09 07:44:07;;;;;;;;;;;;;;;25.57;100.00;99351.63;5062223;28;19924;-81
2021/06/09 07:46:34;;;;;;;;;;;;;;;24.10;100.00;99362.69;5048631;28;19956;-83
2021/06/09 07:49:04;;;;;;;;;;;;;;;24.00;100.00;99364.16;5050824;28;19935;-81
2021/06/09 07:51:31;;;;;;;;;;;;;;;24.38;100.00;99361.59;5045179;28;19951;-80
2021/06/09 07:54:01;;;;;;;;;;;;;;;25.51;100.00;99360.22;5036836;28;20318;-85
2021/06/09 07:56:35;;;;;;;;;;;;;;;25.57;100.00;99352.41;5075030;28;20012;-83
2021/06/09 07:59:04;;;;;;;;;;;;;;;25.82;100.00;99359.97;5056464;28;19996;-86
2021/06/09 08:01:32;;;;;;;;;;;;;;;26.88;100.00;99349.09;5040966;28;19937;-80
2021/06/09 08:03:59;;;;;;;;;;;;;;;25.20;100.00;99346.09;5047682;28;19936;-82
2021/06/09 08:06:26;;;;;;;;;;;;;;;24.04;100.00;99354.09;5037675;28;19925;-81
2021/06/09 08:08:53;;;;;;;;;;;;;;;24.15;100.00;99357.03;5050561;28;19946;-81
2021/06/09 08:11:36;;;;;;;;;;;;;;;25.11;100.00;99349.19;5082238;28;20024;-81
2021/06/09 08:14:03;;;;;;;;;;;;;;;25.24;100.00;99349.47;5086422;28;20785;-80
2021/06/09 08:16:31;;;;;;;;;;;;;;;25.56;100.00;99350.88;5067699;28;19929;-81
2021/06/09 08:19:02;;;;;;;;;;;;;;;26.33;100.00;99341.44;5052861;28;20421;-79
2021/06/09 08:21:30;;;;;;;;;;;;;;;25.58;100.00;99351.09;5070456;28;19928;-80
2021/06/09 08:23:57;;;;;;;;;;;;;;;26.49;100.00;99349.25;5070272;28;19932;-82
2021/06/09 08:26:26;;;;;;;;;;;;;;;27.04;100.00;99342.50;5066813;28;19943;-79
2021/06/09 08:28:54;;;;;;;;;;;;;;;27.22;100.00;99334.06;5047465;28;19932;-82
2021/06/09 08:31:23;;;;;;;;;;;;;;;26.03;100.00;99329.81;5082717;28;19929;-81
2021/06/09 08:33:52;;;;;;;;;;;;;;;24.62;100.00;99341.19;5048973;28;20704;-81
2021/06/09 08:36:19;;;;;;;;;;;;;;;23.74;100.00;99340.59;5048013;28;19925;-80
2021/06/09 08:38:49;;;;;;;;;;;;;;;23.70;100.00;99346.53;5050215;28;19959;-81
2021/06/09 08:41:18;;;;;;;;;;;;;;;24.15;100.00;99339.91;5063312;28;20015;-82
2021/06/09 08:43:47;;;;;;;;;;;;;;;24.63;100.00;99325.59;5045444;28;20299;-81
2021/06/09 08:46:15;;;;;;;;;;;;;;;24.85;100.00;99331.44;5064309;28;19932;-83
2021/06/09 08:48:44;;;;;;;;;;;;;;;25.08;100.00;99333.06;5056112;28;19929;-82
2021/06/09 08:51:14;;;;;;;;;;;;;;;24.70;100.00;99330.88;5064831;28;19929;-84
2021/06/09 08:53:42;;;;;;;;;;;;;;;24.26;100.00;99334.25;5060673;28;20418;-82
2021/06/09 08:56:10;;;;;;;;;;;;;;;24.22;100.00;99344.34;5061533;28;19931;-81
2021/06/09 08:58:37;;;;;;;;;;;;;;;24.68;100.00;99330.59;5072152;28;19924;-81
2021/06/09 09:01:07;;;;;;;;;;;;;;;25.03;100.00;99325.25;5075365;28;19924;-82
2021/06/09 09:03:35;;;;;;;;;;;;;;;24.33;100.00;99322.34;5074373;28;19925;-85
2021/06/09 09:06:03;;;;;;;;;;;;;;;24.12;100.00;99345.84;5058022;28;20308;-82
2021/06/09 09:08:30;;;;;;;;;;;;;;;24.61;100.00;99346.09;5075949;28;19947;-82
2021/06/09 09:10:58;;;;;;;;;;;;;;;24.80;100.00;99323.63;5061683;28;20430;-87
2021/06/09 09:13:26;;;;;;;;;;;;;;;23.53;100.00;99331.34;5074606;28;19994;-82
2021/06/09 09:15:55;;;;;;;;;;;;;;;23.07;100.00;99339.16;5075365;28;19924;-82
2021/06/09 09:18:40;;;;;;;;;;;;;;;22.48;100.00;99344.38;5107966;28;19928;-82
2021/06/09 09:21:10;;;;;;;;;;;;;;;22.00;100.00;99340.31;5106965;28;20277;-81
2021/06/09 09:23:44;;;;;;;;;;;;;;;22.36;100.00;99348.34;5049983;28;19967;-82
2021/06/09 09:26:43;;;;;;;;;;;;;;;22.62;100.00;99337.06;5057873;28;20403;-82
2021/06/09 09:29:12;;;;;;;;;;;;;;;22.97;100.00;99352.78;5048067;28;20338;-83
2021/06/09 09:31:46;;;;;;;;;;;;;;;23.43;100.00;99343.44;5062550;28;20367;-82
2021/06/09 09:34:26;;;;;;;;;;;;;;;23.59;100.00;99337.88;5058049;28;20024;-81
2021/06/09 09:37:11;;;;;;;;;;;;;;;23.59;100.00;99337.88;5101046;28;19924;-82
2021/06/09 09:39:40;;;;;;;;;;;;;;;23.57;100.00;99336.84;5051623;28;19925;-82
2021/06/09 09:42:16;;;;;;;;;;;;;;;23.78;100.00;99346.88;5051589;28;20007;-82
2021/06/09 09:44:43;;;;;;;;;;;;;;;24.08;100.00;99342.44;5055859;28;19931;-82
2021/06/09 09:47:16;;;;;;;;;;;;;;;23.78;100.00;99335.44;5067177;28;19964;-82
2021/06/09 09:49:44;;;;;;;;;;;;;;;22.72;100.00;99333.56;5029999;28;19925;-81
2021/06/09 09:52:11;;;;;;;;;;;;;;;23.22;100.00;99333.34;5059068;28;20015;-82
2021/06/09 09:54:39;;;;;;;;;;;;;;;23.43;100.00;99337.75;5072767;28;20044;-82
2021/06/09 09:57:11;;;;;;;;;;;;;;;23.42;100.00;99333.28;5053140;28;19924;-81
2021/06/09 09:59:39;;;;;;;;;;;;;;;23.44;100.00;99328.69;5074893;28;20390;-81
2021/06/09 10:02:15;;;;;;;;;;;;;;;23.63;100.00;99332.72;5061806;28;20310;-81
2021/06/09 10:04:48;;;;;;;;;;;;;;;23.50;100.00;99332.34;5046944;28;19935;-82
2021/06/09 10:07:15;;;;;;;;;;;;;;;23.43;100.00;99332.03;5056684;28;19928;-81
2021/06/09 10:09:44;;;;;;;;;;;;;;;23.22;100.00;99322.72;5073114;28;20031;-81
2021/06/09 10:12:16;;;;;;;;;;;;;;;23.41;100.00;99331.75;5074356;28;20066;-82
2021/06/09 10:14:46;;;;;;;;;;;;;;;23.48;100.00;99340.63;5074082;28;19928;-81
2021/06/09 10:17:14;;;;;;;;;;;;;;;23.30;100.00;99334.47;5072820;28;20375;-81
2021/06/09 10:19:43;;;;;;;;;;;;;;;22.99;100.00;99340.88;5072932;28;19928;-81
2021/06/09 10:22:18;;;;;;;;;;;;;;;22.72;100.00;99327.09;5074127;28;19975;-81
2021/06/09 10:24:46;;;;;;;;;;;;;;;22.85;100.00;99336.84;5071041;28;20287;-82
2021/06/09 10:27:15;;;;;;;;;;;;;;;23.10;100.00;99344.63;5062595;28;19931;-81
2021/06/09 10:29:43;;;;;;;;;;;;;;;23.14;100.00;99333.78;5074045;28;19928;-81
2021/06/09 10:32:12;;;;;;;;;;;;;;;22.89;100.00;99345.94;5072836;28;20375;-81
2021/06/09 10:34:42;;;;;;;;;;;;;;;22.88;100.00;99335.84;5073893;28;19924;-81
2021/06/09 10:37:09;;;;;;;;;;;;;;;22.92;100.00;99347.00;5073839;28;19930;-81
2021/06/09 10:39:38;;;;;;;;;;;;;;;22.82;100.00;99346.41;5074139;28;19924;-81
2021/06/09 10:42:16;;;;;;;;;;;;;;;22.93;100.00;99346.50;5106373;28;19924;-81
2021/06/09 10:44:45;;;;;;;;;;;;;;;22.92;100.00;99344.16;5106297;28;19925;-81
2021/06/09 10:47:33;;;;;;;;;;;;;;;23.06;100.00;99337.59;5028344;28;19925;-81
2021/06/09 10:50:01;;;;;;;;;;;;;;;22.79;100.00;99347.41;5068510;28;19931;-83
2021/06/09 10:52:28;;;;;;;;;;;;;;;22.70;100.00;99346.75;5032610;28;19924;-83
2021/06/09 10:54:55;;;;;;;;;;;;;;;22.84;100.00;99348.75;5053539;28;20280;-79
2021/06/09 10:57:23;;;;;;;;;;;;;;;22.77;100.00;99349.16;5051215;28;19929;-80
2021/06/09 10:59:50;;;;;;;;;;;;;;;22.87;100.00;99348.50;5062487;28;19925;-81
2021/06/09 11:02:19;;;;;;;;;;;;;;;22.97;100.00;99334.91;5096936;28;19985;-80
2021/06/09 11:04:47;;;;;;;;;;;;;;;22.91;100.00;99342.59;5069634;28;20026;-80
2021/06/09 11:07:33;;;;;;;;;;;;;;;22.99;100.00;99346.59;5056333;28;20445;-79
2021/06/09 11:10:01;;;;;;;;;;;;;;;22.71;100.00;99339.78;5036086;28;19936;-80
2021/06/09 11:12:29;;;;;;;;;;;;;;;22.37;100.00;99344.22;5049544;28;19925;-80
2021/06/09 11:15:07;;;;;;;;;;;;;;;22.02;100.00;99337.78;5050365;28;20019;-80
2021/06/09 11:17:38;;;;;;;;;;;;;;;22.09;100.00;99345.91;5082036;28;19925;-80
2021/06/09 11:20:14;;;;;;;;;;;;;;;22.04;100.00;99338.06;5049432;28;19925;-80
2021/06/09 11:22:43;;;;;;;;;;;;;;;22.02;100.00;99329.25;5049458;28;19928;-79
2021/06/09 11:25:19;;;;;;;;;;;;;;;21.81;100.00;99330.44;5083401;28;20004;-80
2021/06/09 11:28:04;;;;;;;;;;;;;;;21.87;100.00;99337.00;5051972;28;20461;-79
2021/06/09 11:30:32;;;;;;;;;;;;;;;22.02;100.00;99342.69;5054348;28;19940;-79
2021/06/09 11:33:01;;;;;;;;;;;;;;;21.87;100.00;99339.84;5058283;28;19925;-79
2021/06/09 11:35:45;;;;;;;;;;;;;;;22.06;100.00;99346.88;5052298;28;19932;-80
2021/06/09 11:38:13;;;;;;;;;;;;;;;22.01;100.00;99336.19;5053085;28;20011;-83
2021/06/09 11:40:50;;;;;;;;;;;;;;;21.95;100.00;99345.91;5083751;28;20010;-79
2021/06/09 11:43:37;;;;;;;;;;;;;;;22.00;100.00;99346.00;5052160;28;20383;-79
2021/06/09 11:46:06;;;;;;;;;;;;;;;21.94;100.00;99350.84;5052117;28;19936;-79
2021/06/09 11:48:34;;;;;;;;;;;;;;;21.82;100.00;99332.03;5051930;28;20561;-79
2021/06/09 11:51:17;;;;;;;;;;;;;;;21.85;100.00;99336.75;5083715;28;19964;-79
2021/06/09 11:53:46;;;;;;;;;;;;;;;21.88;100.00;99334.97;5052710;28;19935;-79
2021/06/09 11:56:19;;;;;;;;;;;;;;;22.02;100.00;99329.25;5057289;28;19924;-79
2021/06/09 11:58:48;;;;;;;;;;;;;;;22.27;100.00;99339.16;5072023;28;19928;-80
2021/06/09 12:01:16;;;;;;;;;;;;;;;22.64;100.00;99335.28;5072310;28;20280;-79
2021/06/09 12:03:44;;;;;;;;;;;;;;;22.79;100.00;99336.00;5075363;28;19975;-80
2021/06/09 12:06:17;;;;;;;;;;;;;;;22.81;100.00;99326.97;5074068;28;20268;-80
2021/06/09 12:08:46;;;;;;;;;;;;;;;22.72;100.00;99327.88;5074420;28;19925;-79
2021/06/09 12:11:13;;;;;;;;;;;;;;;22.38;100.00;99334.41;5074890;28;19935;-80
2021/06/09 12:13:44;;;;;;;;;;;;;;;22.16;100.00;99339.00;5107286;28;19931;-79
2021/06/09 12:16:19;;;;;;;;;;;;;;;22.25;100.00;99331.09;5074081;28;20078;-80
2021/06/09 12:18:47;;;;;;;;;;;;;;;22.20;100.00;99328.19;5073829;28;19924;-80
2021/06/09 12:21:17;;;;;;;;;;;;;;;22.41;100.00;99327.72;5074922;28;19986;-80
2021/06/09 12:24:05;;;;;;;;;;;;;;;22.00;100.00;99328.94;5075118;28;19924;-79
2021/06/09 12:26:32;;;;;;;;;;;;;;;22.03;100.00;99327.97;5059605;28;19928;-79
2021/06/09 12:29:04;;;;;;;;;;;;;;;22.39;100.00;99330.28;5075265;28;20399;-79
2021/06/09 12:31:35;;;;;;;;;;;;;;;22.48;100.00;99327.28;5074957;28;20039;-79
2021/06/09 12:34:04;;;;;;;;;;;;;;;22.18;100.00;99331.53;5074696;28;19995;-79
2021/06/09 12:36:41;;;;;;;;;;;;;;;22.53;100.00;99318.06;5073736;28;20387;-79
2021/06/09 12:39:13;;;;;;;;;;;;;;;22.92;100.00;99332.75;5073585;28;19925;-79
2021/06/09 12:41:40;;;;;;;;;;;;;;;23.22;100.00;99319.09;5072963;28;19939;-79
2021/06/09 12:44:11;;;;;;;;;;;;;;;23.53;100.00;99313.44;5074229;28;19925;-79
2021/06/09 12:46:38;;;;;;;;;;;;;;;23.53;100.00;99319.16;5075494;28;19928;-79
2021/06/09 12:49:19;;;;;;;;;;;;;;;23.43;100.00;99300.66;5073965;28;19924;-79
2021/06/09 12:51:58;;;;;;;;;;;;;;;22.83;100.00;99325.16;5075331;28;19931;-79
2021/06/09 12:54:26;;;;;;;;;;;;;;;22.76;100.00;99313.44;5075301;28;19932;-79
2021/06/09 12:56:53;;;;;;;;;;;;;;;22.76;100.00;99311.38;5074267;28;19932;-79